Terminal Aerodrome Forecast
Issued by NWS

Home | Current Version | Previous Version | Text Only | Print | Product List | Glossary On
Versions: 1 2 3 4 5 6 7 8 9 10 11 12 13 14 15 16
000
FTUS44 KLIX 161122
TAFHDC
TAF
KHDC 161122Z 1612/1712 VRB03KT P6SM VCSH SCT025 BKN250
     FM161500 20004KT P6SM VCSH SCT035 BKN090
      TEMPO 1617/1621 4SM +TSRA BKN035CB
     FM162100 20005KT P6SM SHRA VCTS SCT035CB BKN090
     FM170100 VRB03KT P6SM SCT040 BKN150=

USA.gov is the U.S. government's official web portal to all federal, state and local government web resources and services.